sensor_id;sensor_type;location;lat;lon;timestamp;P1;durP1;ratioP1;P2;durP2;ratioP2
4694;SDS011;2361;49.540;8.390;2022-12-10T00:01:18;20.90;;;9.80;;
4694;SDS011;2361;49.540;8.390;2022-12-10T00:03:46;18.05;;;9.95;;
4694;SDS011;2361;49.540;8.390;2022-12-10T00:06:17;17.00;;;9.57;;
4694;SDS011;2361;49.540;8.390;2022-12-10T00:08:47;16.40;;;8.23;;
4694;SDS011;2361;49.540;8.390;2022-12-10T00:11:15;17.48;;;10.05;;
4694;SDS011;2361;49.540;8.390;2022-12-10T00:13:44;18.13;;;7.60;;
4694;SDS011;2361;49.540;8.390;2022-12-10T00:16:13;16.63;;;9.90;;
4694;SDS011;2361;49.540;8.390;2022-12-10T00:18:43;16.55;;;8.80;;
4694;SDS011;2361;49.540;8.390;2022-12-10T00:21:11;19.80;;;12.00;;
4694;SDS011;2361;49.540;8.390;2022-12-10T00:23:41;16.25;;;8.35;;
4694;SDS011;2361;49.540;8.390;2022-12-10T00:26:09;16.70;;;8.35;;
4694;SDS011;2361;49.540;8.390;2022-12-10T00:28:42;14.15;;;7.85;;
4694;SDS011;2361;49.540;8.390;2022-12-10T00:31:12;17.80;;;7.93;;
4694;SDS011;2361;49.540;8.390;2022-12-10T00:33:48;18.02;;;9.60;;
4694;SDS011;2361;49.540;8.390;2022-12-10T00:36:16;16.00;;;8.30;;
4694;SDS011;2361;49.540;8.390;2022-12-10T00:38:47;13.02;;;5.80;;
4694;SDS011;2361;49.540;8.390;2022-12-10T00:41:15;18.73;;;9.60;;
4694;SDS011;2361;49.540;8.390;2022-12-10T00:43:43;16.75;;;7.22;;
4694;SDS011;2361;49.540;8.390;2022-12-10T00:46:11;16.15;;;8.63;;
4694;SDS011;2361;49.540;8.390;2022-12-10T00:48:40;16.95;;;7.10;;
4694;SDS011;2361;49.540;8.390;2022-12-10T00:51:09;13.10;;;7.25;;
4694;SDS011;2361;49.540;8.390;2022-12-10T00:53:40;17.00;;;10.75;;
4694;SDS011;2361;49.540;8.390;2022-12-10T00:56:09;17.00;;;8.30;;
4694;SDS011;2361;49.540;8.390;2022-12-10T00:58:38;20.98;;;10.50;;
4694;SDS011;2361;49.540;8.390;2022-12-10T01:01:10;13.10;;;6.97;;
4694;SDS011;2361;49.540;8.390;2022-12-10T01:03:38;16.95;;;8.50;;
4694;SDS011;2361;49.540;8.390;2022-12-10T01:06:09;12.90;;;6.90;;
4694;SDS011;2361;49.540;8.390;2022-12-10T01:08:52;19.33;;;8.57;;
4694;SDS011;2361;49.540;8.390;2022-12-10T01:11:24;14.52;;;8.55;;
4694;SDS011;2361;49.540;8.390;2022-12-10T01:13:54;18.98;;;10.15;;
4694;SDS011;2361;49.540;8.390;2022-12-10T01:16:22;15.40;;;8.23;;
4694;SDS011;2361;49.540;8.390;2022-12-10T01:18:54;21.77;;;10.40;;
4694;SDS011;2361;49.540;8.390;2022-12-10T01:21:22;13.88;;;7.25;;
4694;SDS011;2361;49.540;8.390;2022-12-10T01:23:53;18.45;;;9.35;;
4694;SDS011;2361;49.540;8.390;2022-12-10T01:26:22;16.98;;;8.75;;
4694;SDS011;2361;49.540;8.390;2022-12-10T01:28:52;19.75;;;9.70;;
4694;SDS011;2361;49.540;8.390;2022-12-10T01:31:21;16.15;;;6.63;;
4694;SDS011;2361;49.540;8.390;2022-12-10T01:33:54;17.23;;;8.98;;
4694;SDS011;2361;49.540;8.390;2022-12-10T01:36:25;11.23;;;5.10;;
4694;SDS011;2361;49.540;8.390;2022-12-10T01:38:59;15.85;;;8.68;;
4694;SDS011;2361;49.540;8.390;2022-12-10T01:41:33;19.30;;;10.88;;
4694;SDS011;2361;49.540;8.390;2022-12-10T01:46:37;17.65;;;9.90;;
4694;SDS011;2361;49.540;8.390;2022-12-10T01:49:13;17.35;;;8.20;;
4694;SDS011;2361;49.540;8.390;2022-12-10T01:51:47;15.18;;;6.95;;
4694;SDS011;2361;49.540;8.390;2022-12-10T01:54:22;18.67;;;9.00;;
4694;SDS011;2361;49.540;8.390;2022-12-10T01:57:06;18.13;;;10.60;;
4694;SDS011;2361;49.540;8.390;2022-12-10T01:59:40;6.53;;;4.22;;
4694;SDS011;2361;49.540;8.390;2022-12-10T02:05:00;18.65;;;10.27;;
4694;SDS011;2361;49.540;8.390;2022-12-10T02:08:09;19.70;;;10.55;;
4694;SDS011;2361;49.540;8.390;2022-12-10T02:10:50;20.23;;;10.45;;
4694;SDS011;2361;49.540;8.390;2022-12-10T02:13:47;13.07;;;7.18;;
4694;SDS011;2361;49.540;8.390;2022-12-10T02:16:30;18.15;;;7.43;;
4694;SDS011;2361;49.540;8.390;2022-12-10T02:21:59;20.75;;;11.20;;
4694;SDS011;2361;49.540;8.390;2022-12-10T02:24:29;16.85;;;9.10;;
4694;SDS011;2361;49.540;8.390;2022-12-10T02:27:08;19.58;;;11.20;;
4694;SDS011;2361;49.540;8.390;2022-12-10T02:29:48;18.38;;;9.18;;
4694;SDS011;2361;49.540;8.390;2022-12-10T02:32:22;22.48;;;13.88;;
4694;SDS011;2361;49.540;8.390;2022-12-10T02:34:56;20.10;;;9.18;;
4694;SDS011;2361;49.540;8.390;2022-12-10T02:37:36;22.50;;;11.40;;
4694;SDS011;2361;49.540;8.390;2022-12-10T02:40:16;19.50;;;10.82;;
4694;SDS011;2361;49.540;8.390;2022-12-10T02:42:49;17.13;;;7.82;;
4694;SDS011;2361;49.540;8.390;2022-12-10T02:45:18;22.40;;;12.10;;
4694;SDS011;2361;49.540;8.390;2022-12-10T02:47:49;14.48;;;7.80;;
4694;SDS011;2361;49.540;8.390;2022-12-10T02:50:20;17.95;;;9.57;;
4694;SDS011;2361;49.540;8.390;2022-12-10T02:52:48;22.67;;;10.40;;
4694;SDS011;2361;49.540;8.390;2022-12-10T02:55:15;20.45;;;10.60;;
4694;SDS011;2361;49.540;8.390;2022-12-10T03:00:41;18.80;;;10.20;;
4694;SDS011;2361;49.540;8.390;2022-12-10T03:03:42;23.13;;;11.10;;
4694;SDS011;2361;49.540;8.390;2022-12-10T03:06:17;17.67;;;9.15;;
4694;SDS011;2361;49.540;8.390;2022-12-10T03:09:26;19.73;;;9.60;;
4694;SDS011;2361;49.540;8.390;2022-12-10T03:12:54;11.77;;;5.15;;
4694;SDS011;2361;49.540;8.390;2022-12-10T03:15:26;15.68;;;6.78;;
4694;SDS011;2361;49.540;8.390;2022-12-10T03:17:57;18.25;;;9.95;;
4694;SDS011;2361;49.540;8.390;2022-12-10T03:20:27;20.90;;;11.68;;
4694;SDS011;2361;49.540;8.390;2022-12-10T03:22:58;21.42;;;10.45;;
4694;SDS011;2361;49.540;8.390;2022-12-10T03:25:26;19.60;;;10.38;;
4694;SDS011;2361;49.540;8.390;2022-12-10T03:27:56;20.95;;;11.40;;
4694;SDS011;2361;49.540;8.390;2022-12-10T03:30:25;15.05;;;7.97;;
4694;SDS011;2361;49.540;8.390;2022-12-10T03:32:52;17.55;;;9.77;;
4694;SDS011;2361;49.540;8.390;2022-12-10T03:35:20;20.25;;;9.93;;
4694;SDS011;2361;49.540;8.390;2022-12-10T03:37:48;18.17;;;9.30;;
4694;SDS011;2361;49.540;8.390;2022-12-10T03:40:17;16.90;;;9.15;;
4694;SDS011;2361;49.540;8.390;2022-12-10T03:42:48;19.65;;;10.57;;
4694;SDS011;2361;49.540;8.390;2022-12-10T03:45:15;20.13;;;7.07;;
4694;SDS011;2361;49.540;8.390;2022-12-10T03:47:42;14.15;;;7.47;;
4694;SDS011;2361;49.540;8.390;2022-12-10T03:50:10;15.80;;;8.60;;
4694;SDS011;2361;49.540;8.390;2022-12-10T03:52:37;19.92;;;11.43;;
4694;SDS011;2361;49.540;8.390;2022-12-10T03:55:04;20.20;;;9.98;;
4694;SDS011;2361;49.540;8.390;2022-12-10T03:57:33;18.55;;;10.32;;
4694;SDS011;2361;49.540;8.390;2022-12-10T04:00:00;19.98;;;11.43;;
4694;SDS011;2361;49.540;8.390;2022-12-10T04:02:28;19.50;;;12.68;;
4694;SDS011;2361;49.540;8.390;2022-12-10T04:04:55;21.88;;;11.68;;
4694;SDS011;2361;49.540;8.390;2022-12-10T04:07:22;19.45;;;10.35;;
4694;SDS011;2361;49.540;8.390;2022-12-10T04:09:49;18.00;;;9.95;;
4694;SDS011;2361;49.540;8.390;2022-12-10T04:12:16;17.92;;;8.05;;
4694;SDS011;2361;49.540;8.390;2022-12-10T04:14:42;18.33;;;10.85;;
4694;SDS011;2361;49.540;8.390;2022-12-10T04:17:28;16.63;;;8.10;;
4694;SDS011;2361;49.540;8.390;2022-12-10T04:19:54;16.95;;;10.60;;
4694;SDS011;2361;49.540;8.390;2022-12-10T04:22:21;15.98;;;9.60;;
4694;SDS011;2361;49.540;8.390;2022-12-10T04:25:07;17.30;;;9.15;;
4694;SDS011;2361;49.540;8.390;2022-12-10T04:27:55;17.95;;;11.85;;
4694;SDS011;2361;49.540;8.390;2022-12-10T04:30:23;16.40;;;10.82;;
4694;SDS011;2361;49.540;8.390;2022-12-10T04:32:50;15.10;;;7.50;;
4694;SDS011;2361;49.540;8.390;2022-12-10T04:35:17;17.92;;;10.27;;
4694;SDS011;2361;49.540;8.390;2022-12-10T04:37:44;16.73;;;10.45;;
4694;SDS011;2361;49.540;8.390;2022-12-10T04:40:11;16.67;;;7.43;;
4694;SDS011;2361;49.540;8.390;2022-12-10T04:42:38;17.45;;;9.80;;
4694;SDS011;2361;49.540;8.390;2022-12-10T04:45:05;19.10;;;11.25;;
4694;SDS011;2361;49.540;8.390;2022-12-10T04:47:32;14.90;;;6.95;;
4694;SDS011;2361;49.540;8.390;2022-12-10T04:49:59;17.50;;;8.88;;
4694;SDS011;2361;49.540;8.390;2022-12-10T04:52:26;14.40;;;7.25;;
4694;SDS011;2361;49.540;8.390;2022-12-10T04:54:53;14.35;;;7.45;;
4694;SDS011;2361;49.540;8.390;2022-12-10T04:57:19;17.63;;;10.18;;
4694;SDS011;2361;49.540;8.390;2022-12-10T04:59:46;18.40;;;9.90;;
4694;SDS011;2361;49.540;8.390;2022-12-10T05:02:13;16.77;;;9.93;;
4694;SDS011;2361;49.540;8.390;2022-12-10T05:04:40;16.95;;;8.57;;
4694;SDS011;2361;49.540;8.390;2022-12-10T05:07:07;14.27;;;9.20;;
4694;SDS011;2361;49.540;8.390;2022-12-10T05:09:34;11.15;;;6.85;;
4694;SDS011;2361;49.540;8.390;2022-12-10T05:12:01;14.18;;;7.65;;
4694;SDS011;2361;49.540;8.390;2022-12-10T05:14:28;17.20;;;9.60;;
4694;SDS011;2361;49.540;8.390;2022-12-10T05:16:54;14.00;;;7.32;;
4694;SDS011;2361;49.540;8.390;2022-12-10T05:19:21;12.10;;;6.78;;
4694;SDS011;2361;49.540;8.390;2022-12-10T05:21:49;14.95;;;8.73;;
4694;SDS011;2361;49.540;8.390;2022-12-10T05:24:35;13.82;;;7.88;;
4694;SDS011;2361;49.540;8.390;2022-12-10T05:27:03;19.77;;;9.25;;
4694;SDS011;2361;49.540;8.390;2022-12-10T05:29:31;10.52;;;4.93;;
4694;SDS011;2361;49.540;8.390;2022-12-10T05:31:59;12.73;;;7.90;;
4694;SDS011;2361;49.540;8.390;2022-12-10T05:34:25;12.50;;;7.38;;
4694;SDS011;2361;49.540;8.390;2022-12-10T05:36:52;16.00;;;8.15;;
4694;SDS011;2361;49.540;8.390;2022-12-10T05:39:19;8.00;;;3.58;;
4694;SDS011;2361;49.540;8.390;2022-12-10T05:41:46;16.00;;;10.32;;
4694;SDS011;2361;49.540;8.390;2022-12-10T05:44:13;13.82;;;8.35;;
4694;SDS011;2361;49.540;8.390;2022-12-10T05:46:40;12.80;;;6.55;;
4694;SDS011;2361;49.540;8.390;2022-12-10T05:49:07;14.27;;;8.05;;
4694;SDS011;2361;49.540;8.390;2022-12-10T05:51:35;10.88;;;6.47;;
4694;SDS011;2361;49.540;8.390;2022-12-10T05:54:04;8.93;;;5.82;;
4694;SDS011;2361;49.540;8.390;2022-12-10T05:56:32;9.68;;;5.35;;
4694;SDS011;2361;49.540;8.390;2022-12-10T05:59:01;9.75;;;5.05;;
4694;SDS011;2361;49.540;8.390;2022-12-10T06:01:30;12.60;;;7.05;;
4694;SDS011;2361;49.540;8.390;2022-12-10T06:04:00;11.82;;;7.03;;
4694;SDS011;2361;49.540;8.390;2022-12-10T06:06:30;11.30;;;5.95;;
4694;SDS011;2361;49.540;8.390;2022-12-10T06:09:02;10.55;;;5.65;;
4694;SDS011;2361;49.540;8.390;2022-12-10T06:11:30;10.43;;;5.35;;
4694;SDS011;2361;49.540;8.390;2022-12-10T06:13:57;9.65;;;4.80;;
4694;SDS011;2361;49.540;8.390;2022-12-10T06:16:25;12.40;;;6.55;;
4694;SDS011;2361;49.540;8.390;2022-12-10T06:18:53;11.20;;;6.07;;
4694;SDS011;2361;49.540;8.390;2022-12-10T06:21:21;11.15;;;5.97;;
4694;SDS011;2361;49.540;8.390;2022-12-10T06:23:49;11.02;;;6.38;;
4694;SDS011;2361;49.540;8.390;2022-12-10T06:26:20;3.05;;;1.90;;
4694;SDS011;2361;49.540;8.390;2022-12-10T06:28:50;9.35;;;5.72;;
4694;SDS011;2361;49.540;8.390;2022-12-10T06:31:19;9.57;;;4.95;;
4694;SDS011;2361;49.540;8.390;2022-12-10T06:33:46;11.65;;;7.47;;
4694;SDS011;2361;49.540;8.390;2022-12-10T06:36:14;13.52;;;10.25;;
4694;SDS011;2361;49.540;8.390;2022-12-10T06:38:43;10.27;;;6.47;;
4694;SDS011;2361;49.540;8.390;2022-12-10T06:41:10;9.88;;;5.07;;
4694;SDS011;2361;49.540;8.390;2022-12-10T06:43:39;9.80;;;6.90;;
4694;SDS011;2361;49.540;8.390;2022-12-10T06:46:10;10.55;;;6.57;;
4694;SDS011;2361;49.540;8.390;2022-12-10T06:48:40;7.90;;;5.63;;
4694;SDS011;2361;49.540;8.390;2022-12-10T06:51:08;6.22;;;4.63;;
4694;SDS011;2361;49.540;8.390;2022-12-10T06:53:36;13.30;;;6.45;;
4694;SDS011;2361;49.540;8.390;2022-12-10T06:56:04;10.93;;;6.63;;
4694;SDS011;2361;49.540;8.390;2022-12-10T06:58:33;10.93;;;5.95;;
4694;SDS011;2361;49.540;8.390;2022-12-10T07:01:05;8.13;;;5.55;;
4694;SDS011;2361;49.540;8.390;2022-12-10T07:03:34;5.97;;;4.15;;
4694;SDS011;2361;49.540;8.390;2022-12-10T07:06:03;9.15;;;5.63;;
4694;SDS011;2361;49.540;8.390;2022-12-10T07:08:31;6.32;;;4.10;;
4694;SDS011;2361;49.540;8.390;2022-12-10T07:10:58;4.53;;;3.35;;
4694;SDS011;2361;49.540;8.390;2022-12-10T07:13:25;7.70;;;4.63;;
4694;SDS011;2361;49.540;8.390;2022-12-10T07:15:55;6.30;;;4.00;;
4694;SDS011;2361;49.540;8.390;2022-12-10T07:18:23;7.38;;;3.20;;
4694;SDS011;2361;49.540;8.390;2022-12-10T07:20:51;9.88;;;5.28;;
4694;SDS011;2361;49.540;8.390;2022-12-10T07:23:18;8.48;;;4.47;;
4694;SDS011;2361;49.540;8.390;2022-12-10T07:25:45;6.03;;;4.50;;
4694;SDS011;2361;49.540;8.390;2022-12-10T07:28:12;8.02;;;5.07;;
4694;SDS011;2361;49.540;8.390;2022-12-10T07:30:39;9.70;;;5.60;;
4694;SDS011;2361;49.540;8.390;2022-12-10T07:33:06;8.50;;;5.70;;
4694;SDS011;2361;49.540;8.390;2022-12-10T07:35:33;6.60;;;1.23;;
4694;SDS011;2361;49.540;8.390;2022-12-10T07:38:00;6.28;;;3.92;;
4694;SDS011;2361;49.540;8.390;2022-12-10T07:40:27;9.82;;;4.97;;
4694;SDS011;2361;49.540;8.390;2022-12-10T07:42:54;9.77;;;5.70;;
4694;SDS011;2361;49.540;8.390;2022-12-10T07:45:20;9.65;;;6.75;;
4694;SDS011;2361;49.540;8.390;2022-12-10T07:47:47;9.63;;;5.68;;
4694;SDS011;2361;49.540;8.390;2022-12-10T07:50:14;11.07;;;7.65;;
4694;SDS011;2361;49.540;8.390;2022-12-10T07:52:41;11.93;;;8.60;;
4694;SDS011;2361;49.540;8.390;2022-12-10T07:55:08;9.07;;;4.78;;
4694;SDS011;2361;49.540;8.390;2022-12-10T07:57:35;10.38;;;6.38;;
4694;SDS011;2361;49.540;8.390;2022-12-10T08:00:02;10.35;;;5.97;;
4694;SDS011;2361;49.540;8.390;2022-12-10T08:02:30;8.35;;;5.00;;
4694;SDS011;2361;49.540;8.390;2022-12-10T08:04:57;11.07;;;7.15;;
4694;SDS011;2361;49.540;8.390;2022-12-10T08:07:24;7.25;;;4.78;;
4694;SDS011;2361;49.540;8.390;2022-12-10T08:09:51;11.40;;;7.85;;
4694;SDS011;2361;49.540;8.390;2022-12-10T08:12:18;14.18;;;6.45;;
4694;SDS011;2361;49.540;8.390;2022-12-10T08:14:45;14.77;;;7.75;;
4694;SDS011;2361;49.540;8.390;2022-12-10T08:17:12;9.80;;;7.22;;
4694;SDS011;2361;49.540;8.390;2022-12-10T08:19:39;10.18;;;6.00;;
4694;SDS011;2361;49.540;8.390;2022-12-10T08:22:09;11.95;;;6.63;;
4694;SDS011;2361;49.540;8.390;2022-12-10T08:24:36;8.75;;;5.50;;
4694;SDS011;2361;49.540;8.390;2022-12-10T08:27:03;12.52;;;7.40;;
4694;SDS011;2361;49.540;8.390;2022-12-10T08:29:31;10.90;;;7.25;;
4694;SDS011;2361;49.540;8.390;2022-12-10T08:31:58;9.77;;;5.38;;
4694;SDS011;2361;49.540;8.390;2022-12-10T08:34:25;10.48;;;7.03;;
4694;SDS011;2361;49.540;8.390;2022-12-10T08:36:52;15.35;;;6.13;;
4694;SDS011;2361;49.540;8.390;2022-12-10T08:39:19;9.15;;;5.28;;
4694;SDS011;2361;49.540;8.390;2022-12-10T08:41:46;10.82;;;6.25;;
4694;SDS011;2361;49.540;8.390;2022-12-10T08:44:13;10.43;;;6.05;;
4694;SDS011;2361;49.540;8.390;2022-12-10T08:46:40;11.93;;;5.78;;
4694;SDS011;2361;49.540;8.390;2022-12-10T08:49:07;9.90;;;5.95;;
4694;SDS011;2361;49.540;8.390;2022-12-10T08:51:34;10.07;;;6.35;;
4694;SDS011;2361;49.540;8.390;2022-12-10T08:54:02;9.85;;;6.10;;
4694;SDS011;2361;49.540;8.390;2022-12-10T08:56:29;6.57;;;5.00;;
4694;SDS011;2361;49.540;8.390;2022-12-10T08:58:56;10.55;;;6.80;;
4694;SDS011;2361;49.540;8.390;2022-12-10T09:01:23;9.65;;;6.80;;
4694;SDS011;2361;49.540;8.390;2022-12-10T09:03:50;10.50;;;7.18;;
4694;SDS011;2361;49.540;8.390;2022-12-10T09:06:18;8.95;;;6.18;;
4694;SDS011;2361;49.540;8.390;2022-12-10T09:08:48;9.32;;;7.18;;
4694;SDS011;2361;49.540;8.390;2022-12-10T09:11:16;9.75;;;8.30;;
4694;SDS011;2361;49.540;8.390;2022-12-10T09:13:47;12.30;;;8.32;;
4694;SDS011;2361;49.540;8.390;2022-12-10T09:16:14;9.07;;;6.68;;
4694;SDS011;2361;49.540;8.390;2022-12-10T09:18:42;8.55;;;6.70;;
4694;SDS011;2361;49.540;8.390;2022-12-10T09:21:10;12.15;;;6.45;;
4694;SDS011;2361;49.540;8.390;2022-12-10T09:23:41;7.93;;;4.78;;
4694;SDS011;2361;49.540;8.390;2022-12-10T09:26:09;9.88;;;6.22;;
4694;SDS011;2361;49.540;8.390;2022-12-10T09:28:39;10.00;;;7.75;;
4694;SDS011;2361;49.540;8.390;2022-12-10T09:31:07;9.38;;;6.95;;
4694;SDS011;2361;49.540;8.390;2022-12-10T09:33:41;6.55;;;4.50;;
4694;SDS011;2361;49.540;8.390;2022-12-10T09:36:10;8.85;;;5.95;;
4694;SDS011;2361;49.540;8.390;2022-12-10T09:38:39;7.97;;;5.38;;
4694;SDS011;2361;49.540;8.390;2022-12-10T09:44:37;7.97;;;5.90;;
4694;SDS011;2361;49.540;8.390;2022-12-10T09:47:29;8.18;;;5.35;;
4694;SDS011;2361;49.540;8.390;2022-12-10T09:50:10;8.60;;;6.07;;
4694;SDS011;2361;49.540;8.390;2022-12-10T09:53:02;11.32;;;6.35;;
4694;SDS011;2361;49.540;8.390;2022-12-10T09:55:38;8.25;;;5.45;;
4694;SDS011;2361;49.540;8.390;2022-12-10T09:58:15;8.25;;;6.10;;
4694;SDS011;2361;49.540;8.390;2022-12-10T10:01:01;6.32;;;3.90;;
4694;SDS011;2361;49.540;8.390;2022-12-10T10:03:32;7.10;;;5.45;;
4694;SDS011;2361;49.540;8.390;2022-12-10T10:06:04;8.70;;;5.38;;
4694;SDS011;2361;49.540;8.390;2022-12-10T10:08:38;6.03;;;4.13;;
4694;SDS011;2361;49.540;8.390;2022-12-10T10:11:14;8.18;;;6.88;;
4694;SDS011;2361;49.540;8.390;2022-12-10T10:13:52;9.70;;;6.10;;
4694;SDS011;2361;49.540;8.390;2022-12-10T10:16:36;9.68;;;6.63;;
4694;SDS011;2361;49.540;8.390;2022-12-10T10:19:16;7.90;;;5.03;;
4694;SDS011;2361;49.540;8.390;2022-12-10T10:21:51;7.90;;;4.93;;
4694;SDS011;2361;49.540;8.390;2022-12-10T10:24:19;6.18;;;4.25;;
4694;SDS011;2361;49.540;8.390;2022-12-10T10:26:51;6.88;;;4.95;;
4694;SDS011;2361;49.540;8.390;2022-12-10T10:29:24;5.50;;;4.43;;
4694;SDS011;2361;49.540;8.390;2022-12-10T10:34:39;7.93;;;5.00;;
4694;SDS011;2361;49.540;8.390;2022-12-10T10:37:11;7.95;;;5.30;;
4694;SDS011;2361;49.540;8.390;2022-12-10T10:39:51;8.93;;;5.15;;
4694;SDS011;2361;49.540;8.390;2022-12-10T10:42:25;7.82;;;4.93;;
4694;SDS011;2361;49.540;8.390;2022-12-10T10:45:05;10.15;;;5.88;;
4694;SDS011;2361;49.540;8.390;2022-12-10T10:48:18;6.68;;;3.85;;
4694;SDS011;2361;49.540;8.390;2022-12-10T10:50:54;9.50;;;6.32;;
4694;SDS011;2361;49.540;8.390;2022-12-10T10:56:09;7.60;;;5.40;;
4694;SDS011;2361;49.540;8.390;2022-12-10T10:58:55;3.28;;;2.95;;
4694;SDS011;2361;49.540;8.390;2022-12-10T11:01:42;8.70;;;4.63;;
4694;SDS011;2361;49.540;8.390;2022-12-10T11:04:35;7.18;;;4.63;;
4694;SDS011;2361;49.540;8.390;2022-12-10T11:07:05;7.13;;;4.60;;
4694;SDS011;2361;49.540;8.390;2022-12-10T11:10:03;7.80;;;5.70;;
4694;SDS011;2361;49.540;8.390;2022-12-10T11:12:58;9.25;;;5.25;;
4694;SDS011;2361;49.540;8.390;2022-12-10T11:15:35;8.30;;;4.78;;
4694;SDS011;2361;49.540;8.390;2022-12-10T11:35:16;6.78;;;4.75;;
4694;SDS011;2361;49.540;8.390;2022-12-10T11:38:39;6.78;;;5.53;;
4694;SDS011;2361;49.540;8.390;2022-12-10T11:41:33;5.00;;;2.70;;
4694;SDS011;2361;49.540;8.390;2022-12-10T11:55:50;9.98;;;5.60;;
4694;SDS011;2361;49.540;8.390;2022-12-10T12:05:58;9.30;;;5.70;;
4694;SDS011;2361;49.540;8.390;2022-12-10T12:11:31;8.00;;;5.70;;
4694;SDS011;2361;49.540;8.390;2022-12-10T12:14:36;9.50;;;6.00;;
4694;SDS011;2361;49.540;8.390;2022-12-10T12:20:20;7.63;;;5.20;;
4694;SDS011;2361;49.540;8.390;2022-12-10T12:23:02;8.27;;;3.90;;
4694;SDS011;2361;49.540;8.390;2022-12-10T12:25:42;5.78;;;4.25;;
4694;SDS011;2361;49.540;8.390;2022-12-10T12:28:14;8.50;;;6.20;;
4694;SDS011;2361;49.540;8.390;2022-12-10T12:31:04;2.95;;;2.08;;
4694;SDS011;2361;49.540;8.390;2022-12-10T12:33:49;9.93;;;5.05;;
4694;SDS011;2361;49.540;8.390;2022-12-10T12:36:29;9.60;;;4.85;;
4694;SDS011;2361;49.540;8.390;2022-12-10T12:42:27;6.63;;;4.82;;
4694;SDS011;2361;49.540;8.390;2022-12-10T12:47:46;8.80;;;5.55;;
4694;SDS011;2361;49.540;8.390;2022-12-10T12:50:28;9.20;;;4.60;;
4694;SDS011;2361;49.540;8.390;2022-12-10T12:53:07;9.88;;;5.65;;
4694;SDS011;2361;49.540;8.390;2022-12-10T13:04:10;4.93;;;3.47;;
4694;SDS011;2361;49.540;8.390;2022-12-10T13:06:38;8.75;;;5.25;;
4694;SDS011;2361;49.540;8.390;2022-12-10T13:17:24;7.47;;;4.70;;
4694;SDS011;2361;49.540;8.390;2022-12-10T13:22:57;8.50;;;4.57;;
4694;SDS011;2361;49.540;8.390;2022-12-10T13:26:17;7.38;;;4.20;;
4694;SDS011;2361;49.540;8.390;2022-12-10T13:41:33;6.55;;;3.95;;
4694;SDS011;2361;49.540;8.390;2022-12-10T13:44:33;8.65;;;5.70;;
4694;SDS011;2361;49.540;8.390;2022-12-10T13:53:03;3.13;;;2.78;;
4694;SDS011;2361;49.540;8.390;2022-12-10T13:55:53;7.57;;;5.45;;
4694;SDS011;2361;49.540;8.390;2022-12-10T14:01:21;7.60;;;5.30;;
4694;SDS011;2361;49.540;8.390;2022-12-10T14:06:52;7.82;;;5.13;;
4694;SDS011;2361;49.540;8.390;2022-12-10T14:09:21;9.73;;;5.70;;
4694;SDS011;2361;49.540;8.390;2022-12-10T14:11:59;10.45;;;5.30;;
4694;SDS011;2361;49.540;8.390;2022-12-10T14:17:50;11.10;;;5.60;;
4694;SDS011;2361;49.540;8.390;2022-12-10T14:20:00;10.10;;;6.93;;
4694;SDS011;2361;49.540;8.390;2022-12-10T14:22:38;6.30;;;4.60;;
4694;SDS011;2361;49.540;8.390;2022-12-10T14:25:13;6.82;;;4.15;;
4694;SDS011;2361;49.540;8.390;2022-12-10T14:27:52;6.32;;;4.63;;
4694;SDS011;2361;49.540;8.390;2022-12-10T14:30:21;6.30;;;4.50;;
4694;SDS011;2361;49.540;8.390;2022-12-10T14:32:57;5.80;;;3.67;;
4694;SDS011;2361;49.540;8.390;2022-12-10T14:35:26;5.30;;;4.03;;
4694;SDS011;2361;49.540;8.390;2022-12-10T14:37:55;5.85;;;4.72;;
4694;SDS011;2361;49.540;8.390;2022-12-10T14:40:26;3.45;;;3.10;;
4694;SDS011;2361;49.540;8.390;2022-12-10T14:43:05;9.00;;;5.10;;
4694;SDS011;2361;49.540;8.390;2022-12-10T14:45:58;7.45;;;4.90;;
4694;SDS011;2361;49.540;8.390;2022-12-10T14:48:25;5.78;;;3.72;;
4694;SDS011;2361;49.540;8.390;2022-12-10T14:50:53;8.07;;;4.82;;
4694;SDS011;2361;49.540;8.390;2022-12-10T14:53:31;6.80;;;5.05;;
4694;SDS011;2361;49.540;8.390;2022-12-10T14:56:04;7.47;;;5.10;;
4694;SDS011;2361;49.540;8.390;2022-12-10T14:58:38;7.35;;;3.90;;
4694;SDS011;2361;49.540;8.390;2022-12-10T15:01:17;6.28;;;4.45;;
4694;SDS011;2361;49.540;8.390;2022-12-10T15:03:53;8.70;;;4.95;;
4694;SDS011;2361;49.540;8.390;2022-12-10T15:06:22;6.85;;;4.45;;
4694;SDS011;2361;49.540;8.390;2022-12-10T15:08:49;8.77;;;5.07;;
4694;SDS011;2361;49.540;8.390;2022-12-10T15:11:22;7.75;;;5.28;;
4694;SDS011;2361;49.540;8.390;2022-12-10T15:13:54;10.35;;;5.85;;
4694;SDS011;2361;49.540;8.390;2022-12-10T15:16:31;6.93;;;3.95;;
4694;SDS011;2361;49.540;8.390;2022-12-10T15:19:17;8.55;;;5.45;;
4694;SDS011;2361;49.540;8.390;2022-12-10T15:21:51;8.00;;;4.55;;
4694;SDS011;2361;49.540;8.390;2022-12-10T15:24:36;7.00;;;4.40;;
4694;SDS011;2361;49.540;8.390;2022-12-10T15:27:18;8.00;;;3.72;;
4694;SDS011;2361;49.540;8.390;2022-12-10T15:29:48;7.00;;;3.90;;
4694;SDS011;2361;49.540;8.390;2022-12-10T15:32:24;5.95;;;3.90;;
4694;SDS011;2361;49.540;8.390;2022-12-10T15:34:53;5.70;;;3.55;;
4694;SDS011;2361;49.540;8.390;2022-12-10T15:37:25;4.22;;;2.67;;
4694;SDS011;2361;49.540;8.390;2022-12-10T15:40:00;3.22;;;1.95;;
4694;SDS011;2361;49.540;8.390;2022-12-10T15:45:21;5.13;;;2.88;;
4694;SDS011;2361;49.540;8.390;2022-12-10T15:47:48;5.80;;;2.55;;
4694;SDS011;2361;49.540;8.390;2022-12-10T15:50:16;2.47;;;1.95;;
4694;SDS011;2361;49.540;8.390;2022-12-10T15:52:43;6.10;;;3.42;;
4694;SDS011;2361;49.540;8.390;2022-12-10T15:55:12;3.17;;;2.45;;
4694;SDS011;2361;49.540;8.390;2022-12-10T15:57:40;2.80;;;2.10;;
4694;SDS011;2361;49.540;8.390;2022-12-10T16:00:23;2.03;;;1.85;;
4694;SDS011;2361;49.540;8.390;2022-12-10T16:02:56;1.50;;;1.40;;
4694;SDS011;2361;49.540;8.390;2022-12-10T16:08:20;2.63;;;1.75;;
4694;SDS011;2361;49.540;8.390;2022-12-10T16:10:56;7.00;;;1.45;;
4694;SDS011;2361;49.540;8.390;2022-12-10T16:13:34;2.60;;;1.33;;
4694;SDS011;2361;49.540;8.390;2022-12-10T16:16:09;3.45;;;2.35;;
4694;SDS011;2361;49.540;8.390;2022-12-10T16:18:39;16.73;;;6.50;;
4694;SDS011;2361;49.540;8.390;2022-12-10T16:21:06;9.93;;;4.18;;
4694;SDS011;2361;49.540;8.390;2022-12-10T16:23:34;4.60;;;3.70;;
4694;SDS011;2361;49.540;8.390;2022-12-10T16:26:04;4.45;;;2.92;;
4694;SDS011;2361;49.540;8.390;2022-12-10T16:28:41;4.32;;;2.92;;
4694;SDS011;2361;49.540;8.390;2022-12-10T16:31:10;4.32;;;1.67;;
4694;SDS011;2361;49.540;8.390;2022-12-10T16:33:41;2.55;;;2.45;;
4694;SDS011;2361;49.540;8.390;2022-12-10T16:36:09;4.97;;;3.45;;
4694;SDS011;2361;49.540;8.390;2022-12-10T16:38:38;6.55;;;4.30;;
4694;SDS011;2361;49.540;8.390;2022-12-10T16:41:15;8.60;;;5.85;;
4694;SDS011;2361;49.540;8.390;2022-12-10T16:43:48;12.75;;;7.45;;
4694;SDS011;2361;49.540;8.390;2022-12-10T16:46:16;10.93;;;5.35;;
4694;SDS011;2361;49.540;8.390;2022-12-10T16:48:43;9.73;;;5.95;;
4694;SDS011;2361;49.540;8.390;2022-12-10T16:51:14;15.35;;;7.13;;
4694;SDS011;2361;49.540;8.390;2022-12-10T16:53:48;10.48;;;6.57;;
4694;SDS011;2361;49.540;8.390;2022-12-10T16:56:16;12.35;;;6.95;;
4694;SDS011;2361;49.540;8.390;2022-12-10T16:58:43;14.23;;;7.50;;
4694;SDS011;2361;49.540;8.390;2022-12-10T17:01:18;11.48;;;7.85;;
4694;SDS011;2361;49.540;8.390;2022-12-10T17:03:51;12.90;;;6.53;;
4694;SDS011;2361;49.540;8.390;2022-12-10T17:06:18;10.63;;;7.05;;
4694;SDS011;2361;49.540;8.390;2022-12-10T17:08:45;11.25;;;6.25;;
4694;SDS011;2361;49.540;8.390;2022-12-10T17:11:14;10.00;;;6.25;;
4694;SDS011;2361;49.540;8.390;2022-12-10T17:14:28;10.35;;;6.13;;
4694;SDS011;2361;49.540;8.390;2022-12-10T17:16:59;15.05;;;6.82;;
4694;SDS011;2361;49.540;8.390;2022-12-10T17:19:30;13.65;;;6.80;;
4694;SDS011;2361;49.540;8.390;2022-12-10T17:22:01;11.93;;;6.93;;
4694;SDS011;2361;49.540;8.390;2022-12-10T17:24:29;14.70;;;7.45;;
4694;SDS011;2361;49.540;8.390;2022-12-10T17:27:05;12.05;;;7.78;;
4694;SDS011;2361;49.540;8.390;2022-12-10T17:29:41;13.63;;;7.75;;
4694;SDS011;2361;49.540;8.390;2022-12-10T17:32:19;13.07;;;7.22;;
4694;SDS011;2361;49.540;8.390;2022-12-10T17:34:48;11.93;;;6.80;;
4694;SDS011;2361;49.540;8.390;2022-12-10T17:37:15;16.33;;;9.73;;
4694;SDS011;2361;49.540;8.390;2022-12-10T17:39:45;15.77;;;8.25;;